sensor_id;sensor_type;location;lat;lon;timestamp;P1;durP1;ratioP1;P2;durP2;ratioP2
59728;SDS011;45588;51.598;5.618;2023-11-19T00:00:30;9.20;;;7.43;;
59728;SDS011;45588;51.598;5.618;2023-11-19T00:02:56;17.63;;;16.00;;
59728;SDS011;45588;51.598;5.618;2023-11-19T00:05:21;10.52;;;8.15;;
59728;SDS011;45588;51.598;5.618;2023-11-19T00:07:46;15.40;;;7.45;;
59728;SDS011;45588;51.598;5.618;2023-11-19T00:10:12;9.55;;;7.43;;
59728;SDS011;45588;51.598;5.618;2023-11-19T00:12:38;10.82;;;7.88;;
59728;SDS011;45588;51.598;5.618;2023-11-19T00:15:03;9.50;;;7.95;;
59728;SDS011;45588;51.598;5.618;2023-11-19T00:17:29;10.88;;;7.60;;
59728;SDS011;45588;51.598;5.618;2023-11-19T00:19:55;12.32;;;8.05;;
59728;SDS011;45588;51.598;5.618;2023-11-19T00:22:20;11.37;;;7.20;;
59728;SDS011;45588;51.598;5.618;2023-11-19T00:24:47;15.20;;;7.60;;
59728;SDS011;45588;51.598;5.618;2023-11-19T00:27:12;16.37;;;14.77;;
59728;SDS011;45588;51.598;5.618;2023-11-19T00:29:37;13.47;;;7.37;;
59728;SDS011;45588;51.598;5.618;2023-11-19T00:32:02;14.18;;;7.68;;
59728;SDS011;45588;51.598;5.618;2023-11-19T00:34:27;15.30;;;6.90;;
59728;SDS011;45588;51.598;5.618;2023-11-19T00:36:53;11.23;;;6.83;;
59728;SDS011;45588;51.598;5.618;2023-11-19T00:39:20;11.13;;;6.75;;
59728;SDS011;45588;51.598;5.618;2023-11-19T00:41:46;10.32;;;6.53;;
59728;SDS011;45588;51.598;5.618;2023-11-19T00:44:11;8.73;;;6.63;;
59728;SDS011;45588;51.598;5.618;2023-11-19T00:46:36;13.07;;;6.63;;
59728;SDS011;45588;51.598;5.618;2023-11-19T00:49:02;9.40;;;7.00;;
59728;SDS011;45588;51.598;5.618;2023-11-19T00:51:27;14.83;;;7.43;;
59728;SDS011;45588;51.598;5.618;2023-11-19T00:53:52;13.27;;;7.13;;
59728;SDS011;45588;51.598;5.618;2023-11-19T00:56:20;9.88;;;5.90;;
59728;SDS011;45588;51.598;5.618;2023-11-19T00:58:45;15.23;;;11.53;;
59728;SDS011;45588;51.598;5.618;2023-11-19T01:01:13;17.50;;;10.43;;
59728;SDS011;45588;51.598;5.618;2023-11-19T01:03:38;14.93;;;9.98;;
59728;SDS011;45588;51.598;5.618;2023-11-19T01:06:04;15.13;;;5.28;;
59728;SDS011;45588;51.598;5.618;2023-11-19T01:08:29;13.27;;;8.43;;
59728;SDS011;45588;51.598;5.618;2023-11-19T01:10:55;8.13;;;4.90;;
59728;SDS011;45588;51.598;5.618;2023-11-19T01:13:20;15.38;;;9.00;;
59728;SDS011;45588;51.598;5.618;2023-11-19T01:15:45;15.57;;;8.50;;
59728;SDS011;45588;51.598;5.618;2023-11-19T01:18:10;13.30;;;4.85;;
59728;SDS011;45588;51.598;5.618;2023-11-19T01:20:36;12.90;;;5.43;;
59728;SDS011;45588;51.598;5.618;2023-11-19T01:23:01;11.75;;;4.75;;
59728;SDS011;45588;51.598;5.618;2023-11-19T01:25:26;13.80;;;5.20;;
59728;SDS011;45588;51.598;5.618;2023-11-19T01:27:51;16.20;;;4.50;;
59728;SDS011;45588;51.598;5.618;2023-11-19T01:30:16;15.70;;;4.93;;
59728;SDS011;45588;51.598;5.618;2023-11-19T01:32:42;15.02;;;4.80;;
59728;SDS011;45588;51.598;5.618;2023-11-19T01:35:07;15.80;;;7.13;;
59728;SDS011;45588;51.598;5.618;2023-11-19T01:37:35;16.77;;;4.10;;
59728;SDS011;45588;51.598;5.618;2023-11-19T01:40:01;8.38;;;3.80;;
59728;SDS011;45588;51.598;5.618;2023-11-19T01:42:27;10.25;;;3.72;;
59728;SDS011;45588;51.598;5.618;2023-11-19T01:44:59;15.77;;;4.37;;
59728;SDS011;45588;51.598;5.618;2023-11-19T01:47:25;10.13;;;3.55;;
59728;SDS011;45588;51.598;5.618;2023-11-19T01:49:50;12.00;;;3.83;;
59728;SDS011;45588;51.598;5.618;2023-11-19T01:52:16;10.80;;;3.92;;
59728;SDS011;45588;51.598;5.618;2023-11-19T01:54:41;11.65;;;4.18;;
59728;SDS011;45588;51.598;5.618;2023-11-19T01:57:06;15.95;;;7.25;;
59728;SDS011;45588;51.598;5.618;2023-11-19T01:59:32;15.43;;;6.72;;
59728;SDS011;45588;51.598;5.618;2023-11-19T02:01:57;12.13;;;4.85;;
59728;SDS011;45588;51.598;5.618;2023-11-19T02:04:23;18.52;;;6.75;;
59728;SDS011;45588;51.598;5.618;2023-11-19T02:06:48;9.73;;;3.97;;
59728;SDS011;45588;51.598;5.618;2023-11-19T02:09:14;13.35;;;3.85;;
59728;SDS011;45588;51.598;5.618;2023-11-19T02:11:40;18.43;;;4.67;;
59728;SDS011;45588;51.598;5.618;2023-11-19T02:14:05;10.50;;;3.35;;
59728;SDS011;45588;51.598;5.618;2023-11-19T02:16:31;12.48;;;4.38;;
59728;SDS011;45588;51.598;5.618;2023-11-19T02:18:57;9.70;;;3.58;;
59728;SDS011;45588;51.598;5.618;2023-11-19T02:21:22;17.40;;;5.20;;
59728;SDS011;45588;51.598;5.618;2023-11-19T02:23:47;12.30;;;3.83;;
59728;SDS011;45588;51.598;5.618;2023-11-19T02:26:14;17.35;;;4.65;;
59728;SDS011;45588;51.598;5.618;2023-11-19T02:28:39;19.83;;;5.25;;
59728;SDS011;45588;51.598;5.618;2023-11-19T02:31:07;13.35;;;4.50;;
59728;SDS011;45588;51.598;5.618;2023-11-19T02:33:35;24.90;;;9.02;;
59728;SDS011;45588;51.598;5.618;2023-11-19T02:36:01;25.98;;;5.50;;
59728;SDS011;45588;51.598;5.618;2023-11-19T02:38:27;23.30;;;7.22;;
59728;SDS011;45588;51.598;5.618;2023-11-19T02:40:52;21.13;;;6.93;;
59728;SDS011;45588;51.598;5.618;2023-11-19T02:43:17;32.35;;;9.50;;
59728;SDS011;45588;51.598;5.618;2023-11-19T02:45:43;29.40;;;9.80;;
59728;SDS011;45588;51.598;5.618;2023-11-19T02:48:10;23.48;;;5.47;;
59728;SDS011;45588;51.598;5.618;2023-11-19T02:50:35;16.13;;;6.53;;
59728;SDS011;45588;51.598;5.618;2023-11-19T02:53:01;16.98;;;4.75;;
59728;SDS011;45588;51.598;5.618;2023-11-19T02:55:27;19.23;;;4.30;;
59728;SDS011;45588;51.598;5.618;2023-11-19T02:57:55;24.42;;;4.88;;
59728;SDS011;45588;51.598;5.618;2023-11-19T03:00:21;22.27;;;4.75;;
59728;SDS011;45588;51.598;5.618;2023-11-19T03:02:57;16.63;;;4.68;;
59728;SDS011;45588;51.598;5.618;2023-11-19T03:05:30;16.45;;;4.47;;
59728;SDS011;45588;51.598;5.618;2023-11-19T03:07:55;21.35;;;6.40;;
59728;SDS011;45588;51.598;5.618;2023-11-19T03:10:21;18.35;;;4.63;;
59728;SDS011;45588;51.598;5.618;2023-11-19T03:12:46;14.00;;;3.97;;
59728;SDS011;45588;51.598;5.618;2023-11-19T03:15:12;23.67;;;4.93;;
59728;SDS011;45588;51.598;5.618;2023-11-19T03:17:40;33.10;;;9.65;;
59728;SDS011;45588;51.598;5.618;2023-11-19T03:20:07;23.38;;;5.32;;
59728;SDS011;45588;51.598;5.618;2023-11-19T03:22:34;24.13;;;4.78;;
59728;SDS011;45588;51.598;5.618;2023-11-19T03:24:59;26.23;;;5.30;;
59728;SDS011;45588;51.598;5.618;2023-11-19T03:27:25;24.50;;;5.53;;
59728;SDS011;45588;51.598;5.618;2023-11-19T03:29:50;21.47;;;4.53;;
59728;SDS011;45588;51.598;5.618;2023-11-19T03:32:15;18.38;;;3.42;;
59728;SDS011;45588;51.598;5.618;2023-11-19T03:34:40;17.02;;;4.28;;
59728;SDS011;45588;51.598;5.618;2023-11-19T03:37:05;22.20;;;4.65;;
59728;SDS011;45588;51.598;5.618;2023-11-19T03:39:30;26.37;;;4.93;;
59728;SDS011;45588;51.598;5.618;2023-11-19T03:41:56;22.37;;;3.63;;
59728;SDS011;45588;51.598;5.618;2023-11-19T03:44:21;25.43;;;4.03;;
59728;SDS011;45588;51.598;5.618;2023-11-19T03:46:46;19.90;;;3.27;;
59728;SDS011;45588;51.598;5.618;2023-11-19T03:49:11;27.38;;;4.72;;
59728;SDS011;45588;51.598;5.618;2023-11-19T03:51:37;23.55;;;4.50;;
59728;SDS011;45588;51.598;5.618;2023-11-19T03:54:02;26.73;;;3.77;;
59728;SDS011;45588;51.598;5.618;2023-11-19T03:56:27;30.92;;;4.78;;
59728;SDS011;45588;51.598;5.618;2023-11-19T03:58:53;28.50;;;5.35;;
59728;SDS011;45588;51.598;5.618;2023-11-19T04:01:18;18.95;;;4.55;;
59728;SDS011;45588;51.598;5.618;2023-11-19T04:03:43;15.00;;;4.32;;
59728;SDS011;45588;51.598;5.618;2023-11-19T04:06:09;26.80;;;4.95;;
59728;SDS011;45588;51.598;5.618;2023-11-19T04:08:34;17.08;;;4.20;;
59728;SDS011;45588;51.598;5.618;2023-11-19T04:11:00;21.58;;;4.72;;
59728;SDS011;45588;51.598;5.618;2023-11-19T04:13:26;16.50;;;4.25;;
59728;SDS011;45588;51.598;5.618;2023-11-19T04:15:51;25.60;;;4.80;;
59728;SDS011;45588;51.598;5.618;2023-11-19T04:18:16;25.97;;;4.97;;
59728;SDS011;45588;51.598;5.618;2023-11-19T04:20:41;28.55;;;4.53;;
59728;SDS011;45588;51.598;5.618;2023-11-19T04:23:07;21.67;;;4.10;;
59728;SDS011;45588;51.598;5.618;2023-11-19T04:25:33;22.90;;;4.15;;
59728;SDS011;45588;51.598;5.618;2023-11-19T04:27:58;29.35;;;4.72;;
59728;SDS011;45588;51.598;5.618;2023-11-19T04:30:23;57.50;;;10.97;;
59728;SDS011;45588;51.598;5.618;2023-11-19T04:32:48;29.43;;;5.30;;
59728;SDS011;45588;51.598;5.618;2023-11-19T04:35:13;28.27;;;5.97;;
59728;SDS011;45588;51.598;5.618;2023-11-19T04:37:39;37.58;;;6.28;;
59728;SDS011;45588;51.598;5.618;2023-11-19T04:40:04;26.65;;;5.10;;
59728;SDS011;45588;51.598;5.618;2023-11-19T04:42:30;22.52;;;3.35;;
59728;SDS011;45588;51.598;5.618;2023-11-19T04:44:55;27.17;;;5.28;;
59728;SDS011;45588;51.598;5.618;2023-11-19T04:47:20;24.23;;;4.85;;
59728;SDS011;45588;51.598;5.618;2023-11-19T04:49:46;27.23;;;6.30;;
59728;SDS011;45588;51.598;5.618;2023-11-19T04:52:11;36.03;;;7.27;;
59728;SDS011;45588;51.598;5.618;2023-11-19T04:54:41;33.40;;;5.43;;
59728;SDS011;45588;51.598;5.618;2023-11-19T04:57:07;48.93;;;11.57;;
59728;SDS011;45588;51.598;5.618;2023-11-19T04:59:34;39.60;;;7.45;;
59728;SDS011;45588;51.598;5.618;2023-11-19T05:01:59;31.02;;;5.00;;
59728;SDS011;45588;51.598;5.618;2023-11-19T05:04:25;35.80;;;7.10;;
59728;SDS011;45588;51.598;5.618;2023-11-19T05:06:51;31.73;;;7.00;;
59728;SDS011;45588;51.598;5.618;2023-11-19T05:09:16;36.78;;;6.57;;
59728;SDS011;45588;51.598;5.618;2023-11-19T05:11:41;29.67;;;6.57;;
59728;SDS011;45588;51.598;5.618;2023-11-19T05:14:06;43.67;;;11.23;;
59728;SDS011;45588;51.598;5.618;2023-11-19T05:16:31;25.52;;;7.20;;
59728;SDS011;45588;51.598;5.618;2023-11-19T05:18:57;29.48;;;5.97;;
59728;SDS011;45588;51.598;5.618;2023-11-19T05:21:22;24.30;;;5.20;;
59728;SDS011;45588;51.598;5.618;2023-11-19T05:23:48;25.60;;;5.05;;
59728;SDS011;45588;51.598;5.618;2023-11-19T05:26:17;22.38;;;4.63;;
59728;SDS011;45588;51.598;5.618;2023-11-19T05:28:42;28.85;;;5.80;;
59728;SDS011;45588;51.598;5.618;2023-11-19T05:31:07;29.35;;;5.68;;
59728;SDS011;45588;51.598;5.618;2023-11-19T05:33:32;22.23;;;5.17;;
59728;SDS011;45588;51.598;5.618;2023-11-19T05:35:58;27.70;;;5.23;;
59728;SDS011;45588;51.598;5.618;2023-11-19T05:38:23;31.13;;;4.33;;
59728;SDS011;45588;51.598;5.618;2023-11-19T05:40:48;37.10;;;6.60;;
59728;SDS011;45588;51.598;5.618;2023-11-19T05:43:13;29.42;;;6.03;;
59728;SDS011;45588;51.598;5.618;2023-11-19T05:45:39;27.20;;;4.85;;
59728;SDS011;45588;51.598;5.618;2023-11-19T05:48:05;37.87;;;5.60;;
59728;SDS011;45588;51.598;5.618;2023-11-19T05:50:30;20.33;;;4.73;;
59728;SDS011;45588;51.598;5.618;2023-11-19T05:52:55;22.93;;;5.10;;
59728;SDS011;45588;51.598;5.618;2023-11-19T05:55:20;54.25;;;10.20;;
59728;SDS011;45588;51.598;5.618;2023-11-19T05:57:45;24.55;;;4.32;;
59728;SDS011;45588;51.598;5.618;2023-11-19T06:00:11;25.50;;;4.38;;
59728;SDS011;45588;51.598;5.618;2023-11-19T06:02:38;20.88;;;4.25;;
59728;SDS011;45588;51.598;5.618;2023-11-19T06:05:03;31.35;;;4.57;;
59728;SDS011;45588;51.598;5.618;2023-11-19T06:07:30;24.85;;;5.63;;
59728;SDS011;45588;51.598;5.618;2023-11-19T06:09:55;33.78;;;6.53;;
59728;SDS011;45588;51.598;5.618;2023-11-19T06:12:20;22.83;;;4.27;;
59728;SDS011;45588;51.598;5.618;2023-11-19T06:14:46;36.38;;;5.50;;
59728;SDS011;45588;51.598;5.618;2023-11-19T06:17:11;30.70;;;5.10;;
59728;SDS011;45588;51.598;5.618;2023-11-19T06:19:37;34.60;;;4.85;;
59728;SDS011;45588;51.598;5.618;2023-11-19T06:22:05;26.25;;;4.38;;
59728;SDS011;45588;51.598;5.618;2023-11-19T06:24:30;25.95;;;5.47;;
59728;SDS011;45588;51.598;5.618;2023-11-19T06:26:55;24.10;;;4.03;;
59728;SDS011;45588;51.598;5.618;2023-11-19T06:29:20;35.25;;;4.65;;
59728;SDS011;45588;51.598;5.618;2023-11-19T06:31:45;35.45;;;5.13;;
59728;SDS011;45588;51.598;5.618;2023-11-19T06:34:13;25.42;;;4.18;;
59728;SDS011;45588;51.598;5.618;2023-11-19T06:36:38;24.15;;;5.57;;
59728;SDS011;45588;51.598;5.618;2023-11-19T06:39:04;26.73;;;5.60;;
59728;SDS011;45588;51.598;5.618;2023-11-19T06:41:29;39.28;;;5.82;;
59728;SDS011;45588;51.598;5.618;2023-11-19T06:43:54;30.33;;;6.85;;
59728;SDS011;45588;51.598;5.618;2023-11-19T06:46:19;35.78;;;6.25;;
59728;SDS011;45588;51.598;5.618;2023-11-19T06:48:45;31.98;;;4.93;;
59728;SDS011;45588;51.598;5.618;2023-11-19T06:51:10;35.47;;;5.72;;
59728;SDS011;45588;51.598;5.618;2023-11-19T06:53:36;40.22;;;7.07;;
59728;SDS011;45588;51.598;5.618;2023-11-19T06:56:01;28.43;;;5.87;;
59728;SDS011;45588;51.598;5.618;2023-11-19T06:58:30;28.73;;;4.88;;
59728;SDS011;45588;51.598;5.618;2023-11-19T07:00:55;56.28;;;11.65;;
59728;SDS011;45588;51.598;5.618;2023-11-19T07:03:20;39.65;;;5.43;;
59728;SDS011;45588;51.598;5.618;2023-11-19T07:05:46;23.15;;;5.10;;
59728;SDS011;45588;51.598;5.618;2023-11-19T07:08:11;31.90;;;5.82;;
59728;SDS011;45588;51.598;5.618;2023-11-19T07:10:36;33.80;;;5.10;;
59728;SDS011;45588;51.598;5.618;2023-11-19T07:13:01;27.77;;;5.18;;
59728;SDS011;45588;51.598;5.618;2023-11-19T07:15:30;31.30;;;5.47;;
59728;SDS011;45588;51.598;5.618;2023-11-19T07:17:55;32.13;;;4.57;;
59728;SDS011;45588;51.598;5.618;2023-11-19T07:20:23;30.85;;;5.40;;
59728;SDS011;45588;51.598;5.618;2023-11-19T07:22:48;36.63;;;5.37;;
59728;SDS011;45588;51.598;5.618;2023-11-19T07:25:13;35.88;;;6.65;;
59728;SDS011;45588;51.598;5.618;2023-11-19T07:27:39;32.90;;;5.47;;
59728;SDS011;45588;51.598;5.618;2023-11-19T07:30:05;38.13;;;6.70;;
59728;SDS011;45588;51.598;5.618;2023-11-19T07:32:32;40.33;;;5.72;;
59728;SDS011;45588;51.598;5.618;2023-11-19T07:34:57;35.53;;;5.13;;
59728;SDS011;45588;51.598;5.618;2023-11-19T07:37:22;27.40;;;4.93;;
59728;SDS011;45588;51.598;5.618;2023-11-19T07:39:47;37.80;;;7.07;;
59728;SDS011;45588;51.598;5.618;2023-11-19T07:42:13;30.70;;;5.60;;
59728;SDS011;45588;51.598;5.618;2023-11-19T07:44:38;36.83;;;5.50;;
59728;SDS011;45588;51.598;5.618;2023-11-19T07:47:03;35.83;;;5.88;;
59728;SDS011;45588;51.598;5.618;2023-11-19T07:49:28;35.00;;;5.88;;
59728;SDS011;45588;51.598;5.618;2023-11-19T07:51:55;30.90;;;5.35;;
59728;SDS011;45588;51.598;5.618;2023-11-19T07:54:21;48.50;;;7.45;;
59728;SDS011;45588;51.598;5.618;2023-11-19T07:56:46;37.95;;;7.85;;
59728;SDS011;45588;51.598;5.618;2023-11-19T07:59:11;32.88;;;5.13;;
59728;SDS011;45588;51.598;5.618;2023-11-19T08:01:36;33.88;;;4.95;;
59728;SDS011;45588;51.598;5.618;2023-11-19T08:04:02;28.10;;;6.40;;
59728;SDS011;45588;51.598;5.618;2023-11-19T08:06:27;43.50;;;10.45;;
59728;SDS011;45588;51.598;5.618;2023-11-19T08:08:52;36.90;;;6.88;;
59728;SDS011;45588;51.598;5.618;2023-11-19T08:11:18;21.60;;;3.25;;
59728;SDS011;45588;51.598;5.618;2023-11-19T08:13:44;23.00;;;4.13;;
59728;SDS011;45588;51.598;5.618;2023-11-19T08:16:09;34.33;;;5.72;;
59728;SDS011;45588;51.598;5.618;2023-11-19T08:18:35;20.52;;;3.65;;
59728;SDS011;45588;51.598;5.618;2023-11-19T08:21:00;29.07;;;4.83;;
59728;SDS011;45588;51.598;5.618;2023-11-19T08:23:26;29.70;;;5.07;;
59728;SDS011;45588;51.598;5.618;2023-11-19T08:25:51;34.38;;;4.68;;
59728;SDS011;45588;51.598;5.618;2023-11-19T08:28:16;27.13;;;4.53;;
59728;SDS011;45588;51.598;5.618;2023-11-19T08:30:41;30.33;;;6.13;;
59728;SDS011;45588;51.598;5.618;2023-11-19T08:33:07;24.73;;;4.38;;
59728;SDS011;45588;51.598;5.618;2023-11-19T08:35:32;20.03;;;5.90;;
59728;SDS011;45588;51.598;5.618;2023-11-19T08:37:57;39.20;;;5.78;;
59728;SDS011;45588;51.598;5.618;2023-11-19T08:40:24;31.48;;;5.80;;
59728;SDS011;45588;51.598;5.618;2023-11-19T08:42:50;42.70;;;7.03;;
59728;SDS011;45588;51.598;5.618;2023-11-19T08:45:16;28.42;;;4.03;;
59728;SDS011;45588;51.598;5.618;2023-11-19T08:47:41;31.48;;;5.93;;
59728;SDS011;45588;51.598;5.618;2023-11-19T08:50:06;29.33;;;6.57;;
59728;SDS011;45588;51.598;5.618;2023-11-19T08:52:32;34.63;;;5.93;;
59728;SDS011;45588;51.598;5.618;2023-11-19T08:54:57;26.90;;;5.00;;
59728;SDS011;45588;51.598;5.618;2023-11-19T08:57:22;44.27;;;10.33;;
59728;SDS011;45588;51.598;5.618;2023-11-19T08:59:47;35.57;;;6.27;;
59728;SDS011;45588;51.598;5.618;2023-11-19T09:02:12;29.03;;;4.60;;
59728;SDS011;45588;51.598;5.618;2023-11-19T09:04:38;25.75;;;4.75;;
59728;SDS011;45588;51.598;5.618;2023-11-19T09:07:03;27.60;;;5.13;;
59728;SDS011;45588;51.598;5.618;2023-11-19T09:09:28;27.30;;;5.57;;
59728;SDS011;45588;51.598;5.618;2023-11-19T09:11:53;28.52;;;5.03;;
59728;SDS011;45588;51.598;5.618;2023-11-19T09:14:19;27.30;;;4.10;;
59728;SDS011;45588;51.598;5.618;2023-11-19T09:16:49;21.15;;;3.47;;
59728;SDS011;45588;51.598;5.618;2023-11-19T09:19:14;37.10;;;5.97;;
59728;SDS011;45588;51.598;5.618;2023-11-19T09:21:39;33.07;;;4.80;;
59728;SDS011;45588;51.598;5.618;2023-11-19T09:24:04;33.22;;;5.43;;
59728;SDS011;45588;51.598;5.618;2023-11-19T09:26:30;28.55;;;4.78;;
59728;SDS011;45588;51.598;5.618;2023-11-19T09:28:55;31.98;;;5.43;;
59728;SDS011;45588;51.598;5.618;2023-11-19T09:31:21;27.52;;;3.67;;
59728;SDS011;45588;51.598;5.618;2023-11-19T09:33:46;27.23;;;4.20;;
59728;SDS011;45588;51.598;5.618;2023-11-19T09:36:14;22.17;;;4.00;;
59728;SDS011;45588;51.598;5.618;2023-11-19T09:38:40;36.25;;;5.13;;
59728;SDS011;45588;51.598;5.618;2023-11-19T09:41:05;35.25;;;6.95;;
59728;SDS011;45588;51.598;5.618;2023-11-19T09:43:34;27.67;;;4.95;;
59728;SDS011;45588;51.598;5.618;2023-11-19T09:46:03;25.88;;;5.20;;
59728;SDS011;45588;51.598;5.618;2023-11-19T09:48:32;30.85;;;4.30;;
59728;SDS011;45588;51.598;5.618;2023-11-19T09:50:57;29.45;;;6.07;;
59728;SDS011;45588;51.598;5.618;2023-11-19T09:53:24;33.03;;;6.05;;
59728;SDS011;45588;51.598;5.618;2023-11-19T09:55:49;37.10;;;5.28;;
59728;SDS011;45588;51.598;5.618;2023-11-19T09:58:15;40.90;;;5.90;;
59728;SDS011;45588;51.598;5.618;2023-11-19T10:00:40;46.88;;;11.40;;
59728;SDS011;45588;51.598;5.618;2023-11-19T10:03:06;49.40;;;11.70;;
59728;SDS011;45588;51.598;5.618;2023-11-19T10:05:32;28.55;;;4.38;;
59728;SDS011;45588;51.598;5.618;2023-11-19T10:07:57;24.00;;;4.13;;
59728;SDS011;45588;51.598;5.618;2023-11-19T10:10:23;33.25;;;5.88;;
59728;SDS011;45588;51.598;5.618;2023-11-19T10:12:50;24.70;;;4.68;;
59728;SDS011;45588;51.598;5.618;2023-11-19T10:15:24;25.52;;;5.60;;
59728;SDS011;45588;51.598;5.618;2023-11-19T10:17:51;19.13;;;4.47;;
59728;SDS011;45588;51.598;5.618;2023-11-19T10:20:17;30.50;;;6.07;;
59728;SDS011;45588;51.598;5.618;2023-11-19T10:22:42;49.97;;;10.68;;
59728;SDS011;45588;51.598;5.618;2023-11-19T10:25:23;35.28;;;5.53;;
59728;SDS011;45588;51.598;5.618;2023-11-19T10:30:17;44.15;;;10.77;;
59728;SDS011;45588;51.598;5.618;2023-11-19T10:32:42;23.35;;;4.72;;
59728;SDS011;45588;51.598;5.618;2023-11-19T10:35:07;30.00;;;5.77;;
59728;SDS011;45588;51.598;5.618;2023-11-19T10:37:32;39.10;;;10.95;;
59728;SDS011;45588;51.598;5.618;2023-11-19T10:40:00;30.92;;;5.07;;
59728;SDS011;45588;51.598;5.618;2023-11-19T10:42:25;31.70;;;4.85;;
59728;SDS011;45588;51.598;5.618;2023-11-19T10:44:50;29.50;;;5.35;;
59728;SDS011;45588;51.598;5.618;2023-11-19T10:47:16;25.00;;;5.28;;
59728;SDS011;45588;51.598;5.618;2023-11-19T10:49:44;21.33;;;4.47;;
59728;SDS011;45588;51.598;5.618;2023-11-19T10:52:10;39.97;;;6.18;;
59728;SDS011;45588;51.598;5.618;2023-11-19T10:54:36;45.08;;;10.18;;
59728;SDS011;45588;51.598;5.618;2023-11-19T10:57:02;18.10;;;4.60;;
59728;SDS011;45588;51.598;5.618;2023-11-19T10:59:28;29.83;;;4.22;;
59728;SDS011;45588;51.598;5.618;2023-11-19T11:01:54;33.63;;;3.97;;
59728;SDS011;45588;51.598;5.618;2023-11-19T11:04:24;43.05;;;9.88;;
59728;SDS011;45588;51.598;5.618;2023-11-19T11:06:51;44.15;;;10.18;;
59728;SDS011;45588;51.598;5.618;2023-11-19T11:09:16;42.83;;;9.68;;
59728;SDS011;45588;51.598;5.618;2023-11-19T11:11:44;41.97;;;10.13;;
59728;SDS011;45588;51.598;5.618;2023-11-19T11:14:12;30.67;;;6.25;;
59728;SDS011;45588;51.598;5.618;2023-11-19T11:16:37;30.02;;;5.65;;
59728;SDS011;45588;51.598;5.618;2023-11-19T11:19:06;27.55;;;5.18;;
59728;SDS011;45588;51.598;5.618;2023-11-19T11:21:34;37.85;;;9.68;;
59728;SDS011;45588;51.598;5.618;2023-11-19T11:29:27;39.22;;;8.88;;
59728;SDS011;45588;51.598;5.618;2023-11-19T11:39:20;43.85;;;9.82;;
59728;SDS011;45588;51.598;5.618;2023-11-19T11:41:46;41.20;;;9.85;;
59728;SDS011;45588;51.598;5.618;2023-11-19T11:44:11;26.47;;;4.50;;
59728;SDS011;45588;51.598;5.618;2023-11-19T11:49:03;22.47;;;4.53;;
59728;SDS011;45588;51.598;5.618;2023-11-19T11:51:57;24.00;;;3.38;;
59728;SDS011;45588;51.598;5.618;2023-11-19T11:57:03;20.75;;;4.63;;
59728;SDS011;45588;51.598;5.618;2023-11-19T12:02:09;22.15;;;3.63;;
59728;SDS011;45588;51.598;5.618;2023-11-19T12:04:35;17.80;;;3.67;;
59728;SDS011;45588;51.598;5.618;2023-11-19T12:09:29;26.10;;;8.20;;
59728;SDS011;45588;51.598;5.618;2023-11-19T12:19:59;19.13;;;4.18;;
59728;SDS011;45588;51.598;5.618;2023-11-19T12:22:24;33.33;;;8.23;;
59728;SDS011;45588;51.598;5.618;2023-11-19T12:24:50;30.48;;;8.07;;
59728;SDS011;45588;51.598;5.618;2023-11-19T12:27:16;23.80;;;4.32;;
59728;SDS011;45588;51.598;5.618;2023-11-19T12:29:42;31.42;;;5.03;;
59728;SDS011;45588;51.598;5.618;2023-11-19T12:32:09;20.48;;;4.13;;
59728;SDS011;45588;51.598;5.618;2023-11-19T12:34:34;21.03;;;4.17;;
59728;SDS011;45588;51.598;5.618;2023-11-19T12:37:02;39.80;;;8.50;;
59728;SDS011;45588;51.598;5.618;2023-11-19T12:39:31;15.98;;;4.43;;
59728;SDS011;45588;51.598;5.618;2023-11-19T12:41:56;24.33;;;4.53;;
59728;SDS011;45588;51.598;5.618;2023-11-19T12:44:24;20.13;;;4.43;;
59728;SDS011;45588;51.598;5.618;2023-11-19T12:47:05;22.63;;;4.95;;
59728;SDS011;45588;51.598;5.618;2023-11-19T12:49:31;32.38;;;8.38;;
59728;SDS011;45588;51.598;5.618;2023-11-19T12:51:57;35.55;;;8.73;;
59728;SDS011;45588;51.598;5.618;2023-11-19T12:54:35;26.90;;;6.00;;
59728;SDS011;45588;51.598;5.618;2023-11-19T12:57:00;36.60;;;8.38;;
59728;SDS011;45588;51.598;5.618;2023-11-19T12:59:26;40.17;;;8.40;;
59728;SDS011;45588;51.598;5.618;2023-11-19T13:01:58;27.90;;;3.50;;
59728;SDS011;45588;51.598;5.618;2023-11-19T13:04:27;30.73;;;5.07;;
59728;SDS011;45588;51.598;5.618;2023-11-19T13:06:52;34.35;;;8.90;;
59728;SDS011;45588;51.598;5.618;2023-11-19T13:09:21;23.55;;;4.45;;
59728;SDS011;45588;51.598;5.618;2023-11-19T13:11:46;31.00;;;5.95;;
59728;SDS011;45588;51.598;5.618;2023-11-19T13:14:11;29.97;;;5.33;;
59728;SDS011;45588;51.598;5.618;2023-11-19T13:16:37;32.00;;;4.88;;
59728;SDS011;45588;51.598;5.618;2023-11-19T13:19:03;21.17;;;4.03;;
59728;SDS011;45588;51.598;5.618;2023-11-19T13:21:29;24.45;;;5.05;;
59728;SDS011;45588;51.598;5.618;2023-11-19T13:23:56;37.85;;;11.25;;
59728;SDS011;45588;51.598;5.618;2023-11-19T13:26:22;33.42;;;9.45;;
59728;SDS011;45588;51.598;5.618;2023-11-19T13:28:47;20.85;;;4.85;;
59728;SDS011;45588;51.598;5.618;2023-11-19T13:31:12;28.17;;;5.70;;
59728;SDS011;45588;51.598;5.618;2023-11-19T13:33:37;15.05;;;3.65;;
59728;SDS011;45588;51.598;5.618;2023-11-19T13:36:03;23.73;;;4.20;;
59728;SDS011;45588;51.598;5.618;2023-11-19T13:38:30;21.23;;;4.97;;
59728;SDS011;45588;51.598;5.618;2023-11-19T13:40:56;34.95;;;7.47;;
59728;SDS011;45588;51.598;5.618;2023-11-19T13:43:21;30.57;;;7.47;;
59728;SDS011;45588;51.598;5.618;2023-11-19T13:45:46;25.20;;;6.53;;
59728;SDS011;45588;51.598;5.618;2023-11-19T13:48:11;14.02;;;3.47;;
59728;SDS011;45588;51.598;5.618;2023-11-19T13:50:37;24.88;;;3.78;;
59728;SDS011;45588;51.598;5.618;2023-11-19T13:53:02;20.50;;;3.72;;
59728;SDS011;45588;51.598;5.618;2023-11-19T13:55:29;29.55;;;7.43;;
59728;SDS011;45588;51.598;5.618;2023-11-19T13:57:54;24.43;;;3.70;;
59728;SDS011;45588;51.598;5.618;2023-11-19T14:00:20;19.38;;;3.90;;
59728;SDS011;45588;51.598;5.618;2023-11-19T14:02:47;16.98;;;4.43;;
59728;SDS011;45588;51.598;5.618;2023-11-19T14:05:13;28.20;;;7.50;;
59728;SDS011;45588;51.598;5.618;2023-11-19T14:07:39;16.95;;;3.47;;
59728;SDS011;45588;51.598;5.618;2023-11-19T14:10:04;22.42;;;4.47;;
59728;SDS011;45588;51.598;5.618;2023-11-19T14:12:31;15.45;;;3.80;;
59728;SDS011;45588;51.598;5.618;2023-11-19T14:14:57;26.45;;;6.93;;
59728;SDS011;45588;51.598;5.618;2023-11-19T14:17:22;15.15;;;2.95;;
59728;SDS011;45588;51.598;5.618;2023-11-19T14:19:47;22.93;;;4.17;;
59728;SDS011;45588;51.598;5.618;2023-11-19T14:22:12;27.17;;;7.37;;
59728;SDS011;45588;51.598;5.618;2023-11-19T14:24:38;18.25;;;4.15;;
59728;SDS011;45588;51.598;5.618;2023-11-19T14:27:05;24.98;;;3.88;;
59728;SDS011;45588;51.598;5.618;2023-11-19T14:29:30;29.30;;;7.68;;
59728;SDS011;45588;51.598;5.618;2023-11-19T14:31:56;27.83;;;7.90;;
59728;SDS011;45588;51.598;5.618;2023-11-19T14:34:21;23.92;;;4.00;;
59728;SDS011;45588;51.598;5.618;2023-11-19T14:36:47;24.02;;;3.53;;
59728;SDS011;45588;51.598;5.618;2023-11-19T14:39:12;15.93;;;3.88;;
59728;SDS011;45588;51.598;5.618;2023-11-19T14:41:37;34.20;;;8.52;;
59728;SDS011;45588;51.598;5.618;2023-11-19T14:44:03;18.38;;;3.75;;
59728;SDS011;45588;51.598;5.618;2023-11-19T14:46:29;21.13;;;3.58;;
59728;SDS011;45588;51.598;5.618;2023-11-19T14:48:54;17.70;;;4.25;;
59728;SDS011;45588;51.598;5.618;2023-11-19T14:51:19;16.88;;;4.57;;
59728;SDS011;45588;51.598;5.618;2023-11-19T14:53:45;14.55;;;3.55;;
59728;SDS011;45588;51.598;5.618;2023-11-19T14:56:11;22.05;;;4.15;;
59728;SDS011;45588;51.598;5.618;2023-11-19T14:58:37;21.67;;;5.10;;